Capitol Logistics 210




KMIA
Miami International Airport
Miami, Florida
MMMX
Benito Juárez International Airport
Mexico City,

Activity Log

Date Flight Route Aircraft Duration
11/11/2021 CPX210 MNATE2 MNATE MTH B646 CANOA UB646 XOPGI UR522 NUBEL UT31 PAZ UJ55 DATUL DATUL4A B752 3h 14m
09/27/2021 CPX210 MNATE2 MNATE MTH B646 CANOA UB646 XOPGI UR522 NUBEL UT31 PAZ UJ55 DATUL B752 3h 16m
12/02/2019 CPX210 MNATE2 MNATE MTH B646 CANOA UB646 XOPGI UR522 NUBEL UT31 PAZ UJ55 DATUL DATUL4A B763 3h 27m
10/13/2019 CPX210 KMIA/08R EONNS2 EONNS G430 AVION B646 CANOA UM346 AXOMU UR522 PAZ UJ55 DATUL DATU4A MMMX/SMO.D05L B763 3h 04m
08/31/2019 CPX210 MNATE2 MNATE MTH B646 CANOA UB646 XOPGI UR522 NUBEL UT31 PAZ UJ55 DATUL DATUL4A B763 2h 54m
08/12/2019 CPX210 BSTER2 WINCO CYY MINOW M580 IRDOV UM580 NUBEL UR522 COPOS UR522 PAZ UJ55 DATUL DATU4A B763 2h 43m
07/26/2019 CPX210 MNATE2 MNATE MTH B646 CANOA UB646 XOPGI UR522 NUBEL UT31 PAZ UJ55 DATUL DATUL4A B763 2h 56m
07/20/2019 CPX210 MNATE2 MNATE MTH B646 CANOA UB646 XOPGI UR522 NUBEL UT31 PAZ UJ55 DATUL DATUL4A B763 2h 52m
07/10/2019 CPX210 MNATE2 MNATE MTH B646 CANOA UB646 XOPGI UR522 NUBEL UT31 PAZ B763 2h 56m
06/28/2019 CPX210 MNATE2 MNATE MTH B646 CANOA UB646 XOPGI UR522 NUBEL UT31 PAZ UJ55 DATUL DATUL4A B763 2h 58m
06/16/2019 CPX210 MNATE2 MNATE MTH B646 CANOA UB646 XOPGI UR522 NUBEL UT31 PAZ UJ55 DATUL DATUL4A B763 3h 00m
04/07/2019 CPX210 MNATE2 MNATE MTH B646 CANOA UB646 XOPGI UR522 NUBEL UT31 PAZ UJ55 DATUL DATUL4A B763 3h 16m
02/13/2019 CPX210 MNATE2 MNATE MTH B646 CANOA UB646 XOPGI UR522 NUBEL UT31 PAZ UJ55 DATUL DATUL4A B763 3h 06m
02/04/2019 CPX210 MNATE2 MNATE LULLS Y196 CANOA B646 XOPGI UR522 LERUV UR522 PAZ UJ55 DATUL DATU1C B763 3h 10m
12/30/2018 CPX210 MNATE2 MNATE MTH B646 CANOA UB646 XOPGI UR522 NUBEL UT31 PAZ UJ55 DATUL DATUL4A B763 2h 54m
12/12/2018 CPX212 MNATE2 MNATE MTH B646 CANOA UB646 XOPGI UR522 NUBEL UT31 PAZ UJ55 DATUL DATUL4A B763 3h 06m

Route Details

Aircraft Information
Group: North America Fleet
Types: B738,B752,B762,B763
Route Data
Demand: V
Distance: 1109nm
Duration: 3h 00m
Recm'd Route: MNATE2 MNATE MTH B646 CANOA UB646 XOPGI UR522 NUBEL UT31 PAZ UJ55 DATUL DATUL4A
Origin Wx: KMIA 270553Z 11011KT 10SM FEW019 SCT050 SCT080 26/23 A3004 RMK AO2 SLP172 T02610228 10272 20261 58008 $
Dest. Wx: MMMX 270549Z 36010KT 10SM SCT080 BKN220 19/05 A3037 NOSIG RMK SLP087 52014 916 8/038 HZY
Notes:

Financial History
Total Freight: 1,337,678lbs
Average Load: 83,605lbs/flt
Fuel Used: 491,722lbs
Avg. Fuel Used: 30,733lbs/flt
Fuel Expense: $565,700
Avg. Fuel Expense: $35,356
Avg. Fuel Cost: $1.12/lbs
Total Gross Income: $3,166,086
Pilot Pay: $2,844
Total Expenses: $349,701
Total Revenue: $2,242,585
Average Revenue: $197,880.39